KMSO/MSO METAR and TAF weather

Enter ICAO airport designator
Station Type Date Time Source
KMSO METAR 2022/08/16 18:53 UTC NOAA

KMSO 161853Z 00000KT 10SM CLR 29/03 A3010 RMK AO2 SLP169 T02890028


Station Type Date Time Source
KMSO Decoded METAR 2022/08/16 18:53 UTC NOAA

MISSOULA INTERNATIONAL AIRPORT , MT, United States (KMSO) 46-55N 114-06W 975M
Aug 16, 2022 - 02:53 PM EDT / 2022.08.16 1853 UTC
Wind: Calm:0
Visibility: 10 mile(s):0
Sky conditions: clear
Temperature: 84.0 F (28.9 C)
Dew Point: 37.0 F (2.8 C)
Relative Humidity: 18%
Pressure (altimeter): 30.1 in. Hg (1019 hPa)
ob: KMSO 161853Z 00000KT 10SM CLR 29/03 A3010 RMK AO2 SLP169 T02890028
cycle: 19

Station Type Date Time Source
KMSO TAF 2022/08/16 18:22 UTC NOAA

TAF KMSO 161720Z 1618/1718 00000KT P6SM SKC
FM162000 32009KT P6SM SKC
FM170200 10003KT P6SM SKC

Example: see airport list